Uptown, New Jersey
Current Conditions -  °F | °C
As of 5:51 AM on Friday 28 Nov 2014 (Local Time) from KNYC Reporting Station
Few Clouds Few Clouds  
Wind Chill: 31°   Ceiling: Unl
Heat Index: 31°   Visibility: 10mi
Dew Point: 21°   Wind: 3mph
Humidity: 67%   Direction: NA
Pressure: 30.12"   Gusts: NA
Location:  40.7453°N, 74.032°W
Report Text: KNYC 281051Z AUTO VRB03KT 10SM FEW110 M01/M06 A3012 RMK AO2 SLP192 T10061061 $
Loading
Personal Weather Stations






























Interactive Weather Map New forecast layout! Learn more

10-Day Weather Forecast

Advertisements
Track Severe Weather on mobile